Pagrindinis puslapis
METAR-TAF:

METAR-TAF

Oro uostai :

Luangprabangas, Laosas

platuma: 19-53N, ilguma: 102-08E, Aukštis: 305 m

Dabartinis oras

Ataskaita buvo paskelbta 10 valandos ir 33 minutes, ne 11:00 UTC
Ramus vėjas
Temperatūra 26°C
Drėgmė 89%
Slėgis 1007 hPa
Matomumas 10 km arba daugiau
Išsisklaidę debesys ne aukštis 600 ft
Su prošvaistėmis ne aukštis 8000 ft

METAR: VLLB 221100Z 00000KT 9999 SCT006 BKN080 26/24 Q1007 NOSIG

Laikas: 04:33 (21:33 UTC)

Prognozė

Ataskaita buvo paskelbta 4 valandos ir 33 minutes, ne 17:00 UTC
Prognozė galioja nuo 22 metu 18 UTC su 23 metu 18 UTC
Vėjas 4 kt iš Rytų/Pietryčių
Matomumas 10 km arba daugiau
Išsisklaidę debesys ne aukštis 1700 ft
Su prošvaistėmis ne aukštis 8000 ft

TAF: VLLB 221700Z 2218/2318 12004KT 9999 SCT017 BKN080

Orai ataskaitas ir orų prognozės (METAR, TAF).

turimą stotys yra geltonos ir raudonos taškus žemėlapyje.

Perkelti pele per norėdami pamatyti stoties vardą.

Tada spustelėkite, norėdami matyti oro stebėjimo ir prognozės.

Norėdami pakeisti žemėlapį: spustelėkite ant žalios mygtukų su juodo kryžiaus žemyn,; žalią mygtuką su brūkšneliu, jei norite nutolinti; arba žalių rodyklių gretimoms žemėlapius.


METAR-TAF: